Richmond (North Yorkshire), United Kingdom
Current Conditions -  °F | °C
As of 10:50 PM on Wednesday 17 Dec 2014 (Local Time) from EGXE Reporting Station
Broken Clouds Broken Clouds  
Wind Chill: 52°   Ceiling: 10000
Heat Index: 52°   Visibility: 6mi
Dew Point: 48°   Wind: 15mph
Humidity: 88%   Direction: 220°SW
Pressure: 29.59"   Gusts: NA
Location:  54.41°N, 1.74°W
Report Text: EGXE 172250Z AUTO 22013KT 9999 FEW070/// BKN100/// 11/09 Q1002
Loading
Personal Weather Stations






























Interactive Weather Map New forecast layout! Learn more

10-Day Weather Forecast

Advertisements
Track Severe Weather on mobile